Time;durP1;ratioP1;P1;durP2;ratioP2;P2;SDS_P1;SDS_P2;PMS_P1;PMS_P2;Temp;Humidity;BMP_temperature;BMP_pressure;BME280_temperature;BME280_humidity;BME280_pressure;Samples;Min_cycle;Max_cycle;Signal;HPM_P1;HPM_P2
2023/01/29 00:07:48;;;;;;;9.63;6.75;;;0.50;99.90;;;;;;6147040;23;21367;-88
2023/01/29 00:18:24;;;;;;;10.10;6.97;;;0.10;99.90;;;;;;6164447;23;20289;-89
2023/01/29 00:23:41;;;;;;;8.13;6.32;;;0.30;99.90;;;;;;6141276;23;20561;-86
2023/01/29 00:26:11;;;;;;;13.48;7.50;;;0.20;99.90;;;;;;6190328;23;20208;-89
2023/01/29 00:28:47;;;;;;;14.18;7.07;;;0.40;99.90;;;;;;6214927;23;20150;-89
2023/01/29 00:31:19;;;;;;;9.85;8.15;;;0.40;99.90;;;;;;6213831;23;20216;-89
2023/01/29 00:33:48;;;;;;;10.57;7.93;;;0.30;99.90;;;;;;6187651;23;20165;-89
2023/01/29 00:47:32;;;;;;;14.35;9.00;;;-0.20;99.90;;;;;;6207644;23;20172;-89
2023/01/29 00:50:01;;;;;;;12.88;9.18;;;-0.20;99.90;;;;;;6207437;23;20175;-88
2023/01/29 00:52:29;;;;;;;12.55;8.50;;;-0.20;99.90;;;;;;6179824;23;20200;-89
2023/01/29 01:05:41;;;;;;;15.80;10.52;;;-0.20;99.90;;;;;;6205172;23;20422;-88
2023/01/29 01:18:56;;;;;;;15.25;10.90;;;-0.10;99.90;;;;;;6204046;23;20210;-89
2023/01/29 01:21:32;;;;;;;12.40;9.25;;;0.20;99.90;;;;;;6225242;23;20217;-89
2023/01/29 01:24:00;;;;;;;16.33;10.25;;;0.30;99.90;;;;;;6225585;23;20176;-89
2023/01/29 01:26:29;;;;;;;13.13;10.07;;;0.40;99.90;;;;;;6225633;23;20176;-88
2023/01/29 01:28:56;;;;;;;12.98;10.07;;;0.50;99.90;;;;;;6222813;23;20175;-88
2023/01/29 01:31:25;;;;;;;13.68;9.55;;;0.40;99.90;;;;;;6196128;23;20184;-87
2023/01/29 01:33:54;;;;;;;10.15;8.60;;;0.50;99.90;;;;;;6224371;23;20195;-88
2023/01/29 01:36:21;;;;;;;14.48;9.82;;;0.70;99.90;;;;;;6226602;23;20207;-89
2023/01/29 01:38:51;;;;;;;13.32;8.40;;;0.90;99.90;;;;;;6221280;23;20183;-89
2023/01/29 01:41:21;;;;;;;10.05;7.82;;;0.80;99.90;;;;;;6225690;23;20164;-89
2023/01/29 01:43:59;;;;;;;12.48;7.97;;;0.70;99.90;;;;;;6198500;23;20175;-90
2023/01/29 01:46:35;;;;;;;12.65;7.80;;;0.50;99.90;;;;;;6230026;23;20238;-87
2023/01/29 01:49:10;;;;;;;9.77;7.95;;;0.60;99.90;;;;;;6227366;23;20222;-88
2023/01/29 01:51:46;;;;;;;9.07;6.55;;;0.60;99.90;;;;;;6227150;23;20525;-86
2023/01/29 01:54:22;;;;;;;7.78;6.10;;;0.60;99.90;;;;;;6224086;23;20502;-89
2023/01/29 01:57:03;;;;;;;7.45;5.50;;;0.50;99.90;;;;;;6224791;23;20356;-88
2023/01/29 01:59:32;;;;;;;9.13;6.50;;;0.30;99.90;;;;;;6199219;23;20239;-90
2023/01/29 02:10:21;;;;;;;6.00;4.30;;;0.40;99.90;;;;;;6230641;23;20176;-88
2023/01/29 02:26:19;;;;;;;6.85;4.70;;;0.20;99.90;;;;;;6237134;23;20204;-88
2023/01/29 02:37:08;;;;;;;15.48;8.32;;;0.10;99.90;;;;;;6212865;23;20190;-88
2023/01/29 02:42:59;;;;;;;6.97;6.25;;;0.10;99.90;;;;;;6159540;23;20183;-88
2023/01/29 02:45:49;;;;;;;9.25;8.35;;;0.10;99.90;;;;;;6198312;23;20272;-88
2023/01/29 02:54:11;;;;;;;8.93;7.05;;;0.10;99.90;;;;;;6156365;23;20271;-88
2023/01/29 02:56:47;;;;;;;11.18;7.15;;;0.20;99.90;;;;;;6228094;23;20184;-87
2023/01/29 02:59:20;;;;;;;9.68;6.65;;;0.50;99.90;;;;;;6200053;23;20202;-87
2023/01/29 03:07:41;;;;;;;7.45;6.35;;;0.40;99.90;;;;;;6178260;23;20518;-88
2023/01/29 03:21:48;;;;;;;8.35;6.65;;;0.50;99.90;;;;;;6177208;22;20199;-86
2023/01/29 03:32:23;;;;;;;8.35;5.97;;;0.60;99.90;;;;;;6228851;23;20164;-87
2023/01/29 03:35:00;;;;;;;8.85;6.68;;;0.80;99.90;;;;;;6205154;23;20183;-88
2023/01/29 03:37:47;;;;;;;8.82;7.03;;;0.80;99.90;;;;;;6230095;22;20187;-87
2023/01/29 03:40:56;;;;;;;7.80;5.57;;;0.80;99.90;;;;;;5087347;27;20535;-89
2023/01/29 03:43:35;;;;;;;14.27;6.05;;;0.70;99.90;;;;;;5058554;28;20192;-87
2023/01/29 03:48:44;;;;;;;5.88;5.28;;;0.50;99.90;;;;;;5215964;22;20302;-89
2023/01/29 03:51:28;;;;;;;6.47;5.88;;;0.40;99.90;;;;;;5169805;22;20275;-87
2023/01/29 03:54:04;;;;;;;10.13;6.10;;;0.40;99.90;;;;;;5332891;22;20249;-88
2023/01/29 03:56:47;;;;;;;6.32;5.63;;;0.40;99.90;;;;;;5048009;28;20231;-89
2023/01/29 03:59:31;;;;;;;5.95;5.25;;;0.30;99.90;;;;;;5065218;28;20238;-88
2023/01/29 04:02:06;;;;;;;5.20;4.60;;;0.60;99.90;;;;;;5062921;28;20198;-88
2023/01/29 04:04:38;;;;;;;8.80;7.60;;;0.60;99.90;;;;;;5040177;28;20210;-87
2023/01/29 04:07:14;;;;;;;7.28;5.88;;;0.60;99.90;;;;;;5212899;23;20249;-88
2023/01/29 04:12:28;;;;;;;6.68;5.93;;;0.30;99.90;;;;;;5309027;22;20215;-86
2023/01/29 04:25:46;;;;;;;7.80;6.78;;;0.50;99.90;;;;;;5697041;23;20236;-90
2023/01/29 04:28:52;;;;;;;7.25;6.00;;;0.60;99.90;;;;;;5052918;28;20207;-90
2023/01/29 04:31:25;;;;;;;7.97;6.85;;;0.50;99.90;;;;;;5054708;28;20210;-90
2023/01/29 04:34:14;;;;;;;7.35;6.65;;;0.60;99.90;;;;;;5047729;28;20201;-88
2023/01/29 04:37:10;;;;;;;7.57;6.47;;;0.50;99.90;;;;;;5025219;28;20240;-89
2023/01/29 04:39:54;;;;;;;8.35;6.63;;;0.50;99.90;;;;;;5041448;28;20393;-86
2023/01/29 04:42:40;;;;;;;11.50;7.45;;;0.30;99.90;;;;;;5043766;28;20208;-89
2023/01/29 04:45:30;;;;;;;9.70;7.35;;;0.30;99.90;;;;;;5040876;28;20235;-86
2023/01/29 04:48:06;;;;;;;14.15;6.82;;;0.30;99.90;;;;;;5056464;28;20211;-87
2023/01/29 04:50:36;;;;;;;8.43;7.38;;;0.30;99.90;;;;;;5035922;28;20193;-87
2023/01/29 04:53:12;;;;;;;8.27;6.90;;;0.30;99.90;;;;;;5022580;28;20707;-87
2023/01/29 04:56:05;;;;;;;16.77;7.47;;;0.30;99.90;;;;;;5044161;28;20237;-88
2023/01/29 04:58:41;;;;;;;8.45;7.35;;;0.50;99.90;;;;;;5026098;28;20714;-87
2023/01/29 05:01:15;;;;;;;7.72;6.30;;;0.40;99.90;;;;;;5014400;28;20212;-88
2023/01/29 05:03:47;;;;;;;14.13;7.95;;;0.40;99.90;;;;;;5006681;28;20214;-88
2023/01/29 05:06:16;;;;;;;9.02;7.93;;;0.40;99.90;;;;;;5022927;28;20204;-89
2023/01/29 05:08:44;;;;;;;9.30;7.80;;;0.40;99.90;;;;;;5028488;28;20210;-88
2023/01/29 05:11:13;;;;;;;11.77;7.72;;;0.40;99.90;;;;;;5028953;28;20200;-87
2023/01/29 05:13:43;;;;;;;10.07;7.00;;;0.30;99.90;;;;;;5033815;28;20247;-87
2023/01/29 05:16:27;;;;;;;10.68;7.35;;;0.10;99.90;;;;;;5012531;28;20228;-89
2023/01/29 05:18:55;;;;;;;6.32;5.57;;;0.10;99.90;;;;;;5011669;28;20217;-87
2023/01/29 05:21:23;;;;;;;10.95;8.35;;;0.20;99.90;;;;;;5019614;28;20240;-85
2023/01/29 05:24:10;;;;;;;12.35;8.82;;;0.30;99.90;;;;;;5014726;28;20563;-87
2023/01/29 05:29:23;;;;;;;13.43;6.80;;;0.30;99.90;;;;;;5028896;28;20652;-85
2023/01/29 05:31:50;;;;;;;8.65;7.68;;;0.30;99.90;;;;;;5011487;28;20202;-85
2023/01/29 05:34:17;;;;;;;11.98;8.25;;;0.20;99.90;;;;;;5013301;28;20202;-84
2023/01/29 05:36:44;;;;;;;8.25;6.90;;;0.10;99.90;;;;;;5035547;28;20197;-84
2023/01/29 05:39:11;;;;;;;11.25;8.25;;;0.20;99.90;;;;;;5021291;28;20283;-84
2023/01/29 05:41:38;;;;;;;7.97;7.18;;;0.10;99.90;;;;;;5031269;28;20206;-83
2023/01/29 05:44:05;;;;;;;7.85;7.00;;;0.20;99.90;;;;;;5018021;28;20197;-83
2023/01/29 05:46:32;;;;;;;8.20;7.22;;;0.20;99.90;;;;;;5024000;28;20205;-83
2023/01/29 05:48:59;;;;;;;8.80;6.65;;;0.30;99.90;;;;;;5018685;28;20224;-85
2023/01/29 05:51:26;;;;;;;8.02;6.95;;;0.40;99.90;;;;;;5024668;28;20208;-84
2023/01/29 05:53:53;;;;;;;8.40;7.28;;;0.20;99.90;;;;;;5020288;28;20205;-84
2023/01/29 05:56:20;;;;;;;7.55;5.53;;;0.20;99.90;;;;;;5012714;28;20227;-84
2023/01/29 05:58:47;;;;;;;8.75;6.32;;;0.10;99.90;;;;;;5029846;28;20228;-85
2023/01/29 06:01:20;;;;;;;7.45;6.78;;;0.00;99.90;;;;;;5011452;28;20540;-85
2023/01/29 06:03:47;;;;;;;9.88;6.35;;;-0.10;99.90;;;;;;5016910;28;20261;-85
2023/01/29 06:06:15;;;;;;;13.45;8.18;;;-0.10;99.90;;;;;;5017266;28;20202;-85
2023/01/29 06:08:42;;;;;;;7.65;6.82;;;0.00;99.90;;;;;;5029190;28;20395;-85
2023/01/29 06:11:11;;;;;;;8.75;6.20;;;0.00;99.90;;;;;;5038335;28;20208;-85
2023/01/29 06:13:38;;;;;;;11.50;7.53;;;-0.10;99.90;;;;;;5025046;28;20200;-87
2023/01/29 06:16:07;;;;;;;6.85;6.18;;;-0.10;99.90;;;;;;5039924;28;20203;-87
2023/01/29 06:18:38;;;;;;;9.52;6.70;;;0.00;99.90;;;;;;5021653;28;20211;-86
2023/01/29 06:21:08;;;;;;;6.57;5.90;;;-0.10;99.90;;;;;;5032695;28;20197;-87
2023/01/29 06:23:35;;;;;;;15.82;8.98;;;0.10;99.90;;;;;;5025942;28;20481;-84
2023/01/29 06:26:13;;;;;;;9.23;6.75;;;0.10;99.90;;;;;;5036544;28;20212;-86
2023/01/29 06:28:41;;;;;;;10.50;7.40;;;0.00;99.90;;;;;;5023709;28;20196;-84
2023/01/29 06:31:10;;;;;;;9.13;6.90;;;-0.10;99.90;;;;;;5021921;28;20409;-85
2023/01/29 06:33:56;;;;;;;10.85;7.47;;;-0.10;99.90;;;;;;5020230;28;20270;-84
2023/01/29 06:36:24;;;;;;;11.68;7.63;;;-0.10;99.90;;;;;;5030212;28;20243;-84
2023/01/29 06:38:51;;;;;;;12.20;7.68;;;-0.20;99.90;;;;;;5025883;28;20207;-84
2023/01/29 06:41:21;;;;;;;11.27;7.88;;;-0.20;99.90;;;;;;5028783;28;20204;-84
2023/01/29 06:43:48;;;;;;;9.25;6.93;;;-0.40;99.90;;;;;;5019168;28;20197;-86
2023/01/29 06:46:15;;;;;;;9.27;7.10;;;-0.50;99.90;;;;;;5012394;28;20197;-85
2023/01/29 06:48:42;;;;;;;11.38;7.03;;;-0.40;99.90;;;;;;5017197;28;20391;-83
2023/01/29 06:51:10;;;;;;;10.05;7.30;;;-0.40;99.90;;;;;;5023819;28;20313;-84
2023/01/29 06:53:38;;;;;;;9.73;6.88;;;-0.50;99.90;;;;;;5027267;28;20201;-82
2023/01/29 06:56:06;;;;;;;14.57;7.30;;;-0.30;99.90;;;;;;5017900;28;20552;-84
2023/01/29 06:58:35;;;;;;;8.23;6.90;;;-0.40;99.90;;;;;;5027335;28;20272;-84
2023/01/29 07:01:05;;;;;;;11.55;7.63;;;-0.40;99.90;;;;;;5032454;28;20212;-83
2023/01/29 07:03:32;;;;;;;9.55;8.00;;;-0.40;99.90;;;;;;5038070;28;20252;-84
2023/01/29 07:06:00;;;;;;;8.57;7.25;;;-0.30;99.90;;;;;;5024694;28;20208;-83
2023/01/29 07:08:27;;;;;;;8.20;6.22;;;-0.10;99.90;;;;;;5038631;28;20185;-83
2023/01/29 07:10:59;;;;;;;10.38;7.05;;;0.20;99.90;;;;;;5031211;28;20209;-83
2023/01/29 07:13:26;;;;;;;7.57;6.88;;;0.40;99.90;;;;;;5023859;28;20201;-84
2023/01/29 07:15:56;;;;;;;6.72;5.90;;;0.20;99.90;;;;;;5009352;28;20216;-84
2023/01/29 07:18:23;;;;;;;10.68;7.70;;;0.10;99.90;;;;;;5009876;28;20197;-83
2023/01/29 07:20:50;;;;;;;7.78;6.97;;;0.00;99.90;;;;;;5003641;28;20221;-83
2023/01/29 07:23:17;;;;;;;12.63;7.43;;;-0.10;99.90;;;;;;5018915;28;20255;-83
2023/01/29 07:25:44;;;;;;;8.02;7.20;;;0.10;99.90;;;;;;5014784;28;20420;-82
2023/01/29 07:28:11;;;;;;;9.75;7.75;;;0.00;99.90;;;;;;5027518;28;21324;-84
2023/01/29 07:30:38;;;;;;;10.57;6.22;;;0.10;99.90;;;;;;5031172;28;20240;-83
2023/01/29 07:33:07;;;;;;;7.00;6.32;;;0.20;99.90;;;;;;5024853;28;20203;-83
2023/01/29 07:35:41;;;;;;;6.65;5.75;;;0.20;99.90;;;;;;5029463;28;20203;-83
2023/01/29 07:38:10;;;;;;;8.13;6.28;;;0.20;99.90;;;;;;5015665;28;20488;-83
2023/01/29 07:40:37;;;;;;;10.18;7.55;;;0.20;99.90;;;;;;5029218;28;20216;-83
2023/01/29 07:43:06;;;;;;;10.73;5.25;;;0.40;99.90;;;;;;5022974;28;20239;-82
2023/01/29 07:45:37;;;;;;;10.40;7.15;;;0.40;99.90;;;;;;5020143;28;20289;-82
2023/01/29 07:48:05;;;;;;;8.95;6.22;;;0.70;99.90;;;;;;5017067;28;20201;-82
2023/01/29 07:50:34;;;;;;;7.97;6.20;;;0.90;99.90;;;;;;5016104;28;20211;-83
2023/01/29 07:53:13;;;;;;;7.60;5.60;;;1.20;99.90;;;;;;5034820;28;20222;-84
2023/01/29 07:55:43;;;;;;;9.48;6.65;;;1.20;99.90;;;;;;5035431;28;20192;-84
2023/01/29 07:58:10;;;;;;;6.85;5.72;;;1.00;99.90;;;;;;5026218;28;20516;-83
2023/01/29 08:00:37;;;;;;;10.60;6.93;;;0.90;99.90;;;;;;5026657;28;20228;-91
2023/01/29 08:03:09;;;;;;;6.72;6.03;;;0.80;99.90;;;;;;5236144;22;20240;-88
2023/01/29 08:05:37;;;;;;;9.05;7.57;;;0.70;99.90;;;;;;5027366;28;20209;-86
2023/01/29 08:08:04;;;;;;;8.63;7.25;;;0.80;99.90;;;;;;5029193;28;20207;-89
2023/01/29 08:10:38;;;;;;;8.90;7.90;;;0.80;99.90;;;;;;5032826;28;20201;-89
2023/01/29 08:13:06;;;;;;;12.55;7.55;;;0.90;99.90;;;;;;5025619;28;20202;-89
2023/01/29 08:15:36;;;;;;;9.00;7.72;;;0.90;99.90;;;;;;5025058;28;20401;-90
2023/01/29 08:18:05;;;;;;;12.30;8.10;;;1.20;99.90;;;;;;5031538;28;20268;-86
2023/01/29 08:20:32;;;;;;;11.80;8.02;;;1.30;99.90;;;;;;5034681;28;20232;-91
2023/01/29 08:23:14;;;;;;;8.52;6.20;;;1.40;99.90;;;;;;5027164;28;20283;-88
2023/01/29 08:25:41;;;;;;;7.90;6.43;;;1.30;99.90;;;;;;5027613;28;20205;-88
2023/01/29 08:28:12;;;;;;;10.23;7.32;;;1.30;99.90;;;;;;5030373;28;20197;-87
2023/01/29 08:30:39;;;;;;;9.68;8.30;;;1.90;99.90;;;;;;5038286;28;20192;-88
2023/01/29 08:33:09;;;;;;;15.18;8.13;;;1.40;99.90;;;;;;5036928;28;20189;-86
2023/01/29 08:35:36;;;;;;;12.23;7.38;;;1.50;99.90;;;;;;5036146;28;20268;-86
2023/01/29 08:38:06;;;;;;;8.98;7.30;;;1.70;99.90;;;;;;5038288;28;20205;-88
2023/01/29 08:40:36;;;;;;;11.43;7.55;;;1.60;99.90;;;;;;5037657;28;20229;-86
2023/01/29 08:43:07;;;;;;;10.88;7.22;;;1.80;99.90;;;;;;5031076;28;20200;-88
2023/01/29 08:45:40;;;;;;;9.57;8.15;;;1.90;99.90;;;;;;5031339;28;20311;-84
2023/01/29 08:48:08;;;;;;;11.02;8.60;;;1.70;99.90;;;;;;5034083;28;20197;-88
2023/01/29 08:50:39;;;;;;;9.52;7.15;;;1.80;99.90;;;;;;5032115;28;20195;-88
2023/01/29 08:53:07;;;;;;;9.10;6.78;;;1.90;99.90;;;;;;5024283;28;20198;-88
2023/01/29 08:55:36;;;;;;;7.85;6.60;;;2.10;99.90;;;;;;5035439;28;20278;-88
2023/01/29 08:58:07;;;;;;;12.20;8.38;;;2.10;99.90;;;;;;5035906;28;20192;-89
2023/01/29 09:00:34;;;;;;;11.88;6.95;;;2.20;99.90;;;;;;5037195;28;20229;-87
2023/01/29 09:03:02;;;;;;;9.82;7.40;;;2.20;99.90;;;;;;5037983;28;20205;-88
2023/01/29 09:05:30;;;;;;;11.85;8.27;;;2.10;99.90;;;;;;5036796;28;20197;-89
2023/01/29 09:07:59;;;;;;;11.05;8.32;;;2.10;99.90;;;;;;5042877;28;20189;-89
2023/01/29 09:10:26;;;;;;;10.23;6.85;;;2.10;99.90;;;;;;5039896;28;20186;-88
2023/01/29 09:12:54;;;;;;;9.43;6.82;;;2.30;99.90;;;;;;5034562;28;20197;-87
2023/01/29 09:15:28;;;;;;;10.82;8.70;;;2.50;99.90;;;;;;5024932;28;20241;-88
2023/01/29 09:18:11;;;;;;;14.57;8.48;;;2.90;99.90;;;;;;5025175;28;20207;-88
2023/01/29 09:20:40;;;;;;;11.30;7.07;;;2.80;99.90;;;;;;5028318;28;20289;-87
2023/01/29 09:23:09;;;;;;;10.48;7.95;;;2.70;99.90;;;;;;5027604;28;20201;-87
2023/01/29 09:25:42;;;;;;;11.50;7.65;;;2.60;99.90;;;;;;5028758;28;20215;-88
2023/01/29 09:28:34;;;;;;;10.57;9.48;;;2.50;99.90;;;;;;5026795;28;20301;-88
2023/01/29 09:31:14;;;;;;;11.52;9.60;;;2.80;99.90;;;;;;5025979;28;20206;-88
2023/01/29 09:33:55;;;;;;;12.40;8.07;;;2.90;99.90;;;;;;5035656;28;20206;-89
2023/01/29 09:36:27;;;;;;;12.13;7.88;;;2.90;99.90;;;;;;5030091;28;20192;-86
2023/01/29 09:39:02;;;;;;;15.52;8.35;;;3.00;99.90;;;;;;5025967;28;20233;-87
2023/01/29 09:41:57;;;;;;;14.82;8.40;;;3.30;99.90;;;;;;5028358;28;20215;-87
2023/01/29 09:45:06;;;;;;;10.93;8.30;;;3.30;99.90;;;;;;5041806;28;20214;-88
2023/01/29 09:47:40;;;;;;;20.50;8.82;;;3.50;99.90;;;;;;5012019;28;20377;-88
2023/01/29 09:50:36;;;;;;;8.98;7.55;;;3.60;99.90;;;;;;5029726;28;20210;-88
2023/01/29 09:53:33;;;;;;;11.25;7.43;;;3.80;99.90;;;;;;5028742;28;20267;-88
2023/01/29 09:56:11;;;;;;;13.93;8.38;;;3.90;99.90;;;;;;5027473;28;20200;-87
2023/01/29 09:58:42;;;;;;;14.80;8.38;;;3.80;99.90;;;;;;5027176;28;20209;-86
2023/01/29 10:01:38;;;;;;;15.88;8.95;;;3.90;99.90;;;;;;5027598;28;20223;-88
2023/01/29 10:04:24;;;;;;;12.70;7.80;;;3.90;99.90;;;;;;5027530;28;20204;-86
2023/01/29 10:07:26;;;;;;;9.45;7.88;;;3.80;99.90;;;;;;5027909;28;20741;-85
2023/01/29 10:10:05;;;;;;;10.13;7.47;;;4.20;99.90;;;;;;5027900;28;20203;-85
2023/01/29 10:12:52;;;;;;;8.70;6.63;;;4.10;99.90;;;;;;5188887;23;20226;-86
2023/01/29 10:15:42;;;;;;;10.43;7.60;;;4.00;99.90;;;;;;4998289;28;20239;-90
2023/01/29 10:18:40;;;;;;;8.30;6.65;;;3.90;99.90;;;;;;5013615;28;20207;-85
2023/01/29 10:21:36;;;;;;;10.05;7.38;;;4.00;99.90;;;;;;5021405;28;20224;-85
2023/01/29 10:24:22;;;;;;;10.82;8.15;;;4.10;99.90;;;;;;4999778;28;20560;-84
2023/01/29 10:26:52;;;;;;;11.70;8.13;;;4.30;99.90;;;;;;5011733;28;20539;-86
2023/01/29 10:29:22;;;;;;;10.52;6.90;;;4.10;99.90;;;;;;5011444;28;20209;-85
2023/01/29 10:32:03;;;;;;;17.60;8.38;;;4.30;99.90;;;;;;5009263;28;20205;-86
2023/01/29 10:34:44;;;;;;;11.95;6.70;;;4.60;99.90;;;;;;5022759;28;20205;-85
2023/01/29 10:37:38;;;;;;;10.40;8.00;;;4.60;99.90;;;;;;5003495;28;20201;-86
2023/01/29 10:40:23;;;;;;;7.30;6.30;;;4.50;99.90;;;;;;5009276;28;20304;-85
2023/01/29 10:43:36;;;;;;;9.68;7.45;;;4.30;99.90;;;;;;5014227;28;20204;-85
2023/01/29 10:46:09;;;;;;;9.98;8.50;;;4.40;99.90;;;;;;5000853;28;20201;-85
2023/01/29 10:48:53;;;;;;;13.60;7.57;;;4.60;99.90;;;;;;5002124;28;20212;-85
2023/01/29 10:52:00;;;;;;;12.32;7.57;;;4.60;99.90;;;;;;4995923;28;20202;-85
2023/01/29 10:54:57;;;;;;;20.23;8.05;;;4.70;99.90;;;;;;4999837;28;20208;-84
2023/01/29 10:57:41;;;;;;;11.10;7.40;;;4.50;99.90;;;;;;4997689;28;20277;-88
2023/01/29 11:00:12;;;;;;;8.65;6.30;;;4.40;99.90;;;;;;5008323;28;20226;-84
2023/01/29 11:02:44;;;;;;;8.30;7.05;;;4.50;99.90;;;;;;5007603;28;20240;-84
2023/01/29 11:05:26;;;;;;;14.52;8.65;;;4.40;99.90;;;;;;5000533;28;20201;-85
2023/01/29 11:08:09;;;;;;;8.02;6.57;;;4.40;99.90;;;;;;4992736;28;20201;-85
2023/01/29 11:10:44;;;;;;;7.13;6.30;;;4.40;99.90;;;;;;5011851;28;20616;-85
2023/01/29 11:13:14;;;;;;;10.05;7.03;;;4.30;99.90;;;;;;5000188;28;20220;-85
2023/01/29 11:15:46;;;;;;;9.43;6.43;;;4.50;99.90;;;;;;4991076;28;20210;-86
2023/01/29 11:18:14;;;;;;;7.63;6.35;;;4.60;99.90;;;;;;4996181;28;20193;-84
2023/01/29 11:20:43;;;;;;;12.02;6.75;;;4.60;99.90;;;;;;4999023;28;20418;-86
2023/01/29 11:23:32;;;;;;;10.70;6.70;;;4.80;99.90;;;;;;5013139;28;20215;-85
2023/01/29 11:26:10;;;;;;;8.68;6.95;;;4.60;99.90;;;;;;5010925;28;20228;-87
2023/01/29 11:28:48;;;;;;;13.88;8.02;;;4.70;99.90;;;;;;5007494;28;20520;-86
2023/01/29 11:31:35;;;;;;;12.32;8.40;;;4.70;99.90;;;;;;5009175;28;20233;-85
2023/01/29 11:34:18;;;;;;;11.07;6.97;;;4.60;99.90;;;;;;5010970;28;20177;-86
2023/01/29 11:36:48;;;;;;;8.32;6.70;;;4.60;99.90;;;;;;5003094;28;20236;-87
2023/01/29 11:39:20;;;;;;;13.95;7.30;;;4.60;99.90;;;;;;5032528;28;20239;-89
2023/01/29 11:42:06;;;;;;;13.93;8.40;;;4.90;99.90;;;;;;5015942;28;20229;-85
2023/01/29 11:44:44;;;;;;;11.77;6.45;;;5.20;99.90;;;;;;5016991;28;20252;-87
2023/01/29 11:50:24;;;;;;;7.10;5.15;;;4.60;99.90;;;;;;4989932;28;20190;-87
2023/01/29 11:53:05;;;;;;;6.30;5.22;;;4.50;99.90;;;;;;4991402;28;20548;-85
2023/01/29 11:55:37;;;;;;;10.43;7.28;;;4.60;99.90;;;;;;4997644;28;20194;-88
2023/01/29 11:58:26;;;;;;;7.95;6.28;;;4.50;99.90;;;;;;5009960;28;20194;-87
2023/01/29 12:01:03;;;;;;;11.07;6.22;;;4.70;99.90;;;;;;4994171;28;20254;-88
2023/01/29 12:03:43;;;;;;;10.15;6.60;;;4.60;99.90;;;;;;5010904;28;20210;-87
2023/01/29 12:06:41;;;;;;;14.35;6.47;;;4.60;99.90;;;;;;4992766;28;20232;-86
2023/01/29 12:09:17;;;;;;;8.88;4.72;;;4.40;99.90;;;;;;4985285;28;20441;-87
2023/01/29 12:11:45;;;;;;;10.50;6.35;;;4.20;99.90;;;;;;4998630;28;20212;-87
2023/01/29 12:14:32;;;;;;;7.95;6.03;;;4.00;99.90;;;;;;4992679;28;20240;-87
2023/01/29 12:17:07;;;;;;;7.43;6.32;;;4.30;99.90;;;;;;4983466;28;20248;-88
2023/01/29 12:20:02;;;;;;;10.15;5.82;;;4.40;99.90;;;;;;4975313;28;20232;-88
2023/01/29 12:22:51;;;;;;;8.82;6.05;;;4.20;99.90;;;;;;4987508;28;20206;-87
2023/01/29 12:25:44;;;;;;;12.00;6.63;;;4.40;99.90;;;;;;4988274;28;20197;-87
2023/01/29 12:28:18;;;;;;;6.40;5.22;;;4.40;99.90;;;;;;4985937;28;20276;-87
2023/01/29 12:31:11;;;;;;;9.32;5.55;;;4.10;99.90;;;;;;4992280;28;20220;-88
2023/01/29 12:34:03;;;;;;;11.10;4.70;;;4.00;99.90;;;;;;5001125;28;20277;-89
2023/01/29 12:37:10;;;;;;;6.90;5.53;;;4.00;99.90;;;;;;5008148;28;20213;-86
2023/01/29 12:39:39;;;;;;;5.82;4.82;;;4.00;99.90;;;;;;5074302;22;20226;-87
2023/01/29 12:42:21;;;;;;;7.32;4.50;;;3.90;99.90;;;;;;5033653;28;20455;-87
2023/01/29 12:45:00;;;;;;;9.68;5.65;;;4.00;99.90;;;;;;5023954;28;20252;-87
2023/01/29 12:47:48;;;;;;;8.27;4.20;;;4.20;99.90;;;;;;5026900;28;20208;-88
2023/01/29 12:50:27;;;;;;;9.20;5.90;;;4.30;99.90;;;;;;5029191;28;20205;-88
2023/01/29 12:53:16;;;;;;;6.68;5.03;;;4.30;99.90;;;;;;5031304;28;20195;-89
2023/01/29 12:55:54;;;;;;;13.90;5.30;;;4.40;99.90;;;;;;5023137;28;20208;-89
2023/01/29 12:58:35;;;;;;;8.25;5.35;;;4.50;99.90;;;;;;5026708;28;20226;-87
2023/01/29 13:01:17;;;;;;;13.60;7.20;;;4.50;99.90;;;;;;5027007;28;20251;-88
2023/01/29 13:04:02;;;;;;;12.13;5.97;;;4.30;99.90;;;;;;5026229;28;20212;-88
2023/01/29 13:06:41;;;;;;;9.52;6.80;;;4.30;99.90;;;;;;5027187;28;20199;-88
2023/01/29 13:09:14;;;;;;;8.10;6.40;;;4.30;99.90;;;;;;5024009;28;20204;-87
2023/01/29 13:11:49;;;;;;;8.55;5.43;;;4.40;99.90;;;;;;5027847;28;20239;-87
2023/01/29 13:14:24;;;;;;;14.15;6.22;;;4.50;99.90;;;;;;5029841;28;20242;-87
2023/01/29 13:17:30;;;;;;;8.55;6.20;;;4.40;99.90;;;;;;5035180;28;20208;-89
2023/01/29 13:20:03;;;;;;;9.85;5.97;;;4.40;99.90;;;;;;5031901;28;20200;-86
2023/01/29 13:22:44;;;;;;;9.93;6.55;;;4.50;99.90;;;;;;5050546;28;20203;-87
2023/01/29 13:25:15;;;;;;;10.23;6.88;;;4.50;99.90;;;;;;5037247;28;20185;-86
2023/01/29 13:27:46;;;;;;;12.57;6.55;;;4.70;99.90;;;;;;5037221;28;20211;-87
2023/01/29 13:30:35;;;;;;;12.93;6.30;;;4.60;99.90;;;;;;5036237;28;20191;-89
2023/01/29 13:33:07;;;;;;;10.13;7.13;;;4.70;99.90;;;;;;5035710;28;20255;-87
2023/01/29 13:35:40;;;;;;;13.48;6.95;;;4.80;99.90;;;;;;5025302;28;20215;-88
2023/01/29 13:38:31;;;;;;;15.82;8.30;;;4.80;99.90;;;;;;5024267;28;20216;-89
2023/01/29 13:41:05;;;;;;;14.52;7.28;;;4.80;99.90;;;;;;4995605;28;20220;-88
2023/01/29 13:43:42;;;;;;;14.77;7.57;;;4.80;99.90;;;;;;5026982;28;20197;-86
2023/01/29 13:46:17;;;;;;;10.80;6.80;;;4.50;99.90;;;;;;5023672;28;20205;-89
2023/01/29 13:48:47;;;;;;;11.13;7.60;;;4.80;99.90;;;;;;5020621;28;20201;-88
2023/01/29 13:51:22;;;;;;;11.77;7.20;;;4.80;99.90;;;;;;5029326;28;20216;-88
2023/01/29 13:53:59;;;;;;;9.60;7.13;;;4.50;99.90;;;;;;5020235;28;20218;-89
2023/01/29 13:57:00;;;;;;;12.27;8.15;;;4.50;99.90;;;;;;5025834;28;20263;-88
2023/01/29 13:59:54;;;;;;;14.85;7.68;;;4.30;99.90;;;;;;5032564;28;20231;-87
2023/01/29 14:02:24;;;;;;;13.00;8.10;;;4.10;99.90;;;;;;5028009;28;20240;-88
2023/01/29 14:05:32;;;;;;;10.80;7.45;;;4.00;99.90;;;;;;5023226;28;20273;-87
2023/01/29 14:08:05;;;;;;;14.80;8.82;;;3.90;99.90;;;;;;5043125;28;20199;-88
2023/01/29 14:10:34;;;;;;;10.55;6.70;;;4.00;99.90;;;;;;5028114;28;20195;-88
2023/01/29 14:13:16;;;;;;;22.27;7.53;;;4.00;99.90;;;;;;5037562;28;20187;-86
2023/01/29 14:15:57;;;;;;;14.25;8.25;;;4.00;99.90;;;;;;5037776;28;20244;-85
2023/01/29 14:18:27;;;;;;;9.80;6.82;;;4.00;99.90;;;;;;5041495;28;20205;-87
2023/01/29 14:21:16;;;;;;;12.80;7.68;;;4.20;99.90;;;;;;5027810;28;20238;-87
2023/01/29 14:23:49;;;;;;;8.23;6.93;;;4.10;99.90;;;;;;5020370;28;20673;-83
2023/01/29 14:26:37;;;;;;;9.00;6.85;;;4.10;99.90;;;;;;5024819;28;20265;-87
2023/01/29 14:29:38;;;;;;;10.57;6.90;;;3.90;99.90;;;;;;5030411;28;20218;-87
2023/01/29 14:32:20;;;;;;;14.10;7.72;;;3.90;99.90;;;;;;5022693;28;20208;-88
2023/01/29 14:35:23;;;;;;;12.75;7.60;;;3.90;99.90;;;;;;5025972;28;20199;-86
2023/01/29 14:38:03;;;;;;;10.07;8.00;;;3.80;99.90;;;;;;5020442;28;20207;-86
2023/01/29 14:40:35;;;;;;;14.32;9.95;;;3.70;99.90;;;;;;5031297;28;20218;-86
2023/01/29 14:43:30;;;;;;;15.20;8.07;;;3.80;99.90;;;;;;5018583;28;20665;-89
2023/01/29 14:46:36;;;;;;;12.15;8.00;;;3.80;99.90;;;;;;5022511;28;20200;-88
2023/01/29 14:49:51;;;;;;;15.45;7.38;;;3.90;99.90;;;;;;5029054;28;20220;-88
2023/01/29 14:52:32;;;;;;;18.15;9.02;;;3.90;99.90;;;;;;5027476;28;20204;-89
2023/01/29 14:55:09;;;;;;;13.98;9.50;;;4.00;99.90;;;;;;5013280;28;20203;-88
2023/01/29 14:57:37;;;;;;;12.98;8.20;;;4.00;99.90;;;;;;5023684;28;20212;-87
2023/01/29 15:00:28;;;;;;;10.50;7.60;;;4.10;99.90;;;;;;5021296;28;20504;-87
2023/01/29 15:02:56;;;;;;;11.20;7.97;;;3.80;99.90;;;;;;5016001;28;20237;-87
2023/01/29 15:05:36;;;;;;;14.88;8.77;;;3.60;99.90;;;;;;5018298;28;20219;-87
2023/01/29 15:08:28;;;;;;;10.75;8.23;;;3.50;99.90;;;;;;5024863;28;20222;-86
2023/01/29 15:13:54;;;;;;;11.43;8.65;;;3.20;99.90;;;;;;5021910;28;20214;-86
2023/01/29 15:16:41;;;;;;;15.60;9.80;;;3.20;99.90;;;;;;5020080;28;20207;-87
2023/01/29 15:19:20;;;;;;;12.38;9.82;;;3.30;99.90;;;;;;5016916;28;20237;-87
2023/01/29 15:22:16;;;;;;;15.23;9.18;;;3.30;99.90;;;;;;5035204;28;20222;-87
2023/01/29 15:24:44;;;;;;;15.93;9.85;;;3.40;99.90;;;;;;5027722;28;20247;-88
2023/01/29 15:27:17;;;;;;;13.52;7.95;;;3.30;99.90;;;;;;5012106;28;20214;-89
2023/01/29 15:29:57;;;;;;;12.95;9.00;;;3.20;99.90;;;;;;5021216;28;20249;-86
2023/01/29 15:32:36;;;;;;;12.75;9.13;;;3.20;99.90;;;;;;5013727;28;20366;-88
2023/01/29 15:35:33;;;;;;;12.52;10.25;;;3.20;99.90;;;;;;5027070;28;20279;-87
2023/01/29 15:38:21;;;;;;;13.98;8.80;;;3.20;99.90;;;;;;5023175;28;20201;-86
2023/01/29 15:40:55;;;;;;;12.70;8.93;;;3.20;99.90;;;;;;5022431;28;20195;-87
2023/01/29 15:43:27;;;;;;;15.32;11.35;;;3.00;99.90;;;;;;5022968;28;20207;-88
2023/01/29 15:45:58;;;;;;;18.35;9.57;;;3.20;99.90;;;;;;5026291;28;20210;-89
2023/01/29 15:48:39;;;;;;;14.85;11.10;;;3.20;99.90;;;;;;5021466;28;20215;-88
2023/01/29 15:51:10;;;;;;;16.17;10.13;;;3.20;99.90;;;;;;5019957;28;20211;-88
2023/01/29 15:53:47;;;;;;;14.48;12.13;;;3.20;99.90;;;;;;5022037;28;20198;-87
2023/01/29 15:56:21;;;;;;;17.75;12.38;;;3.20;99.90;;;;;;5024699;28;20198;-86
2023/01/29 15:58:51;;;;;;;15.35;10.75;;;3.30;99.90;;;;;;5011671;28;20208;-89